sensor_id;sensor_type;location;lat;lon;timestamp;P1;durP1;ratioP1;P2;durP2;ratioP2
62711;SDS011;48772;55.586;37.730;2024-02-23T00:00:54;32.72;;;14.45;;
62711;SDS011;48772;55.586;37.730;2024-02-23T00:03:20;37.08;;;16.02;;
62711;SDS011;48772;55.586;37.730;2024-02-23T00:05:46;35.20;;;15.85;;
62711;SDS011;48772;55.586;37.730;2024-02-23T00:08:15;45.40;;;17.00;;
62711;SDS011;48772;55.586;37.730;2024-02-23T00:10:41;31.35;;;15.60;;
62711;SDS011;48772;55.586;37.730;2024-02-23T00:13:07;43.03;;;16.38;;
62711;SDS011;48772;55.586;37.730;2024-02-23T00:15:33;37.65;;;16.83;;
62711;SDS011;48772;55.586;37.730;2024-02-23T00:17:59;46.95;;;19.92;;
62711;SDS011;48772;55.586;37.730;2024-02-23T00:20:25;36.72;;;16.80;;
62711;SDS011;48772;55.586;37.730;2024-02-23T00:22:50;35.70;;;15.77;;
62711;SDS011;48772;55.586;37.730;2024-02-23T00:25:17;37.70;;;15.48;;
62711;SDS011;48772;55.586;37.730;2024-02-23T00:27:44;34.83;;;18.30;;
62711;SDS011;48772;55.586;37.730;2024-02-23T00:30:10;40.85;;;17.63;;
62711;SDS011;48772;55.586;37.730;2024-02-23T00:32:36;42.85;;;16.60;;
62711;SDS011;48772;55.586;37.730;2024-02-23T00:35:02;32.58;;;14.93;;
62711;SDS011;48772;55.586;37.730;2024-02-23T00:37:29;38.08;;;15.35;;
62711;SDS011;48772;55.586;37.730;2024-02-23T00:40:04;35.80;;;14.40;;
62711;SDS011;48772;55.586;37.730;2024-02-23T00:42:30;42.90;;;16.33;;
62711;SDS011;48772;55.586;37.730;2024-02-23T00:44:56;29.55;;;12.85;;
62711;SDS011;48772;55.586;37.730;2024-02-23T00:47:22;24.20;;;11.13;;
62711;SDS011;48772;55.586;37.730;2024-02-23T00:49:48;17.55;;;9.60;;
62711;SDS011;48772;55.586;37.730;2024-02-23T00:52:15;35.35;;;15.23;;
62711;SDS011;48772;55.586;37.730;2024-02-23T00:54:41;30.08;;;13.25;;
62711;SDS011;48772;55.586;37.730;2024-02-23T00:57:07;35.42;;;15.02;;
62711;SDS011;48772;55.586;37.730;2024-02-23T00:59:33;26.48;;;11.48;;
62711;SDS011;48772;55.586;37.730;2024-02-23T01:01:59;23.38;;;10.82;;
62711;SDS011;48772;55.586;37.730;2024-02-23T01:04:25;30.73;;;14.25;;
62711;SDS011;48772;55.586;37.730;2024-02-23T01:06:51;28.45;;;13.98;;
62711;SDS011;48772;55.586;37.730;2024-02-23T01:09:17;12.70;;;7.70;;
62711;SDS011;48772;55.586;37.730;2024-02-23T01:11:46;32.80;;;13.75;;
62711;SDS011;48772;55.586;37.730;2024-02-23T01:14:13;34.03;;;15.27;;
62711;SDS011;48772;55.586;37.730;2024-02-23T01:16:39;27.27;;;15.38;;
62711;SDS011;48772;55.586;37.730;2024-02-23T01:19:05;40.40;;;16.02;;
62711;SDS011;48772;55.586;37.730;2024-02-23T01:21:31;31.52;;;14.82;;
62711;SDS011;48772;55.586;37.730;2024-02-23T01:23:57;36.25;;;13.43;;
62711;SDS011;48772;55.586;37.730;2024-02-23T01:26:23;37.28;;;14.65;;
62711;SDS011;48772;55.586;37.730;2024-02-23T01:28:49;25.20;;;12.10;;
62711;SDS011;48772;55.586;37.730;2024-02-23T01:31:15;35.10;;;14.57;;
62711;SDS011;48772;55.586;37.730;2024-02-23T01:33:41;29.25;;;13.40;;
62711;SDS011;48772;55.586;37.730;2024-02-23T01:36:07;30.20;;;13.30;;
62711;SDS011;48772;55.586;37.730;2024-02-23T01:38:33;37.80;;;15.30;;
62711;SDS011;48772;55.586;37.730;2024-02-23T01:41:00;33.70;;;12.50;;
62711;SDS011;48772;55.586;37.730;2024-02-23T01:43:26;22.90;;;10.23;;
62711;SDS011;48772;55.586;37.730;2024-02-23T01:45:52;25.65;;;11.70;;
62711;SDS011;48772;55.586;37.730;2024-02-23T01:48:19;23.38;;;11.15;;
62711;SDS011;48772;55.586;37.730;2024-02-23T01:50:46;37.40;;;14.75;;
62711;SDS011;48772;55.586;37.730;2024-02-23T01:53:12;30.65;;;14.23;;
62711;SDS011;48772;55.586;37.730;2024-02-23T01:55:42;26.08;;;11.07;;
62711;SDS011;48772;55.586;37.730;2024-02-23T01:58:09;27.17;;;12.07;;
62711;SDS011;48772;55.586;37.730;2024-02-23T02:00:35;28.17;;;12.75;;
62711;SDS011;48772;55.586;37.730;2024-02-23T02:03:02;21.77;;;10.90;;
62711;SDS011;48772;55.586;37.730;2024-02-23T02:05:28;37.40;;;16.85;;
62711;SDS011;48772;55.586;37.730;2024-02-23T02:07:55;34.13;;;15.15;;
62711;SDS011;48772;55.586;37.730;2024-02-23T02:10:24;31.52;;;14.07;;
62711;SDS011;48772;55.586;37.730;2024-02-23T02:12:52;27.95;;;13.65;;
62711;SDS011;48772;55.586;37.730;2024-02-23T02:15:19;33.30;;;13.80;;
62711;SDS011;48772;55.586;37.730;2024-02-23T02:17:48;34.10;;;15.13;;
62711;SDS011;48772;55.586;37.730;2024-02-23T02:20:14;32.08;;;13.32;;
62711;SDS011;48772;55.586;37.730;2024-02-23T02:22:44;29.17;;;14.20;;
62711;SDS011;48772;55.586;37.730;2024-02-23T02:25:13;28.98;;;13.70;;
62711;SDS011;48772;55.586;37.730;2024-02-23T02:27:44;35.53;;;14.80;;
62711;SDS011;48772;55.586;37.730;2024-02-23T02:30:11;32.97;;;14.45;;
62711;SDS011;48772;55.586;37.730;2024-02-23T02:32:38;26.60;;;12.65;;
62711;SDS011;48772;55.586;37.730;2024-02-23T02:35:04;38.58;;;16.25;;
62711;SDS011;48772;55.586;37.730;2024-02-23T02:37:30;22.45;;;9.90;;
62711;SDS011;48772;55.586;37.730;2024-02-23T02:39:56;27.35;;;12.38;;
62711;SDS011;48772;55.586;37.730;2024-02-23T02:42:21;22.33;;;11.05;;
62711;SDS011;48772;55.586;37.730;2024-02-23T02:44:47;29.10;;;11.88;;
62711;SDS011;48772;55.586;37.730;2024-02-23T02:47:13;27.73;;;12.98;;
62711;SDS011;48772;55.586;37.730;2024-02-23T02:49:42;28.75;;;11.90;;
62711;SDS011;48772;55.586;37.730;2024-02-23T02:52:07;29.88;;;13.52;;
62711;SDS011;48772;55.586;37.730;2024-02-23T02:54:34;22.90;;;10.35;;
62711;SDS011;48772;55.586;37.730;2024-02-23T02:57:00;20.88;;;10.85;;
62711;SDS011;48772;55.586;37.730;2024-02-23T02:59:25;31.05;;;13.93;;
62711;SDS011;48772;55.586;37.730;2024-02-23T03:01:52;38.00;;;14.10;;
62711;SDS011;48772;55.586;37.730;2024-02-23T03:04:17;29.77;;;11.57;;
62711;SDS011;48772;55.586;37.730;2024-02-23T03:06:43;35.95;;;15.82;;
62711;SDS011;48772;55.586;37.730;2024-02-23T03:09:09;29.10;;;12.70;;
62711;SDS011;48772;55.586;37.730;2024-02-23T03:11:35;28.35;;;13.48;;
62711;SDS011;48772;55.586;37.730;2024-02-23T03:14:01;37.72;;;14.38;;
62711;SDS011;48772;55.586;37.730;2024-02-23T03:16:28;21.55;;;10.82;;
62711;SDS011;48772;55.586;37.730;2024-02-23T03:18:56;32.55;;;12.88;;
62711;SDS011;48772;55.586;37.730;2024-02-23T03:21:22;20.98;;;9.38;;
62711;SDS011;48772;55.586;37.730;2024-02-23T03:23:48;33.08;;;13.55;;
62711;SDS011;48772;55.586;37.730;2024-02-23T03:26:14;35.03;;;13.05;;
62711;SDS011;48772;55.586;37.730;2024-02-23T03:28:42;21.60;;;10.57;;
62711;SDS011;48772;55.586;37.730;2024-02-23T03:31:09;27.60;;;11.55;;
62711;SDS011;48772;55.586;37.730;2024-02-23T03:33:35;20.95;;;11.70;;
62711;SDS011;48772;55.586;37.730;2024-02-23T03:36:02;23.73;;;11.98;;
62711;SDS011;48772;55.586;37.730;2024-02-23T03:38:29;27.55;;;13.63;;
62711;SDS011;48772;55.586;37.730;2024-02-23T03:40:55;36.80;;;15.27;;
62711;SDS011;48772;55.586;37.730;2024-02-23T03:43:21;30.45;;;12.70;;
62711;SDS011;48772;55.586;37.730;2024-02-23T03:45:47;31.00;;;13.10;;
62711;SDS011;48772;55.586;37.730;2024-02-23T03:48:13;26.92;;;12.13;;
62711;SDS011;48772;55.586;37.730;2024-02-23T03:50:39;40.97;;;14.25;;
62711;SDS011;48772;55.586;37.730;2024-02-23T03:53:05;37.97;;;13.32;;
62711;SDS011;48772;55.586;37.730;2024-02-23T03:55:31;36.03;;;13.95;;
62711;SDS011;48772;55.586;37.730;2024-02-23T03:57:57;37.28;;;14.05;;
62711;SDS011;48772;55.586;37.730;2024-02-23T04:00:23;37.38;;;14.02;;
62711;SDS011;48772;55.586;37.730;2024-02-23T04:02:49;36.90;;;15.30;;
62711;SDS011;48772;55.586;37.730;2024-02-23T04:05:15;32.85;;;15.95;;
62711;SDS011;48772;55.586;37.730;2024-02-23T04:07:41;25.45;;;11.45;;
62711;SDS011;48772;55.586;37.730;2024-02-23T04:10:07;31.05;;;12.15;;
62711;SDS011;48772;55.586;37.730;2024-02-23T04:12:33;33.13;;;12.98;;
62711;SDS011;48772;55.586;37.730;2024-02-23T04:14:59;35.55;;;14.27;;
62711;SDS011;48772;55.586;37.730;2024-02-23T04:17:25;36.67;;;13.35;;
62711;SDS011;48772;55.586;37.730;2024-02-23T04:19:51;39.58;;;14.40;;
62711;SDS011;48772;55.586;37.730;2024-02-23T04:22:17;35.08;;;17.13;;
62711;SDS011;48772;55.586;37.730;2024-02-23T04:24:43;35.17;;;15.48;;
62711;SDS011;48772;55.586;37.730;2024-02-23T04:27:09;35.45;;;13.02;;
62711;SDS011;48772;55.586;37.730;2024-02-23T04:29:35;42.70;;;15.02;;
62711;SDS011;48772;55.586;37.730;2024-02-23T04:32:05;39.75;;;13.15;;
62711;SDS011;48772;55.586;37.730;2024-02-23T04:34:32;27.17;;;11.63;;
62711;SDS011;48772;55.586;37.730;2024-02-23T04:36:58;40.88;;;14.43;;
62711;SDS011;48772;55.586;37.730;2024-02-23T04:39:23;32.47;;;14.10;;
62711;SDS011;48772;55.586;37.730;2024-02-23T04:41:49;36.03;;;16.08;;
62711;SDS011;48772;55.586;37.730;2024-02-23T04:44:15;41.00;;;15.82;;
62711;SDS011;48772;55.586;37.730;2024-02-23T04:46:41;33.25;;;15.68;;
62711;SDS011;48772;55.586;37.730;2024-02-23T04:49:07;24.10;;;11.95;;
62711;SDS011;48772;55.586;37.730;2024-02-23T04:51:33;35.25;;;13.43;;
62711;SDS011;48772;55.586;37.730;2024-02-23T04:54:00;33.03;;;12.50;;
62711;SDS011;48772;55.586;37.730;2024-02-23T04:56:26;26.25;;;11.63;;
62711;SDS011;48772;55.586;37.730;2024-02-23T04:58:52;33.35;;;14.60;;
62711;SDS011;48772;55.586;37.730;2024-02-23T05:01:20;35.42;;;13.77;;
62711;SDS011;48772;55.586;37.730;2024-02-23T05:03:46;37.65;;;14.45;;
62711;SDS011;48772;55.586;37.730;2024-02-23T05:06:13;50.30;;;16.75;;
62711;SDS011;48772;55.586;37.730;2024-02-23T05:08:39;28.42;;;12.27;;
62711;SDS011;48772;55.586;37.730;2024-02-23T05:11:06;33.70;;;14.52;;
62711;SDS011;48772;55.586;37.730;2024-02-23T05:13:33;47.67;;;16.85;;
62711;SDS011;48772;55.586;37.730;2024-02-23T05:15:59;38.20;;;13.65;;
62711;SDS011;48772;55.586;37.730;2024-02-23T05:18:24;28.45;;;12.57;;
62711;SDS011;48772;55.586;37.730;2024-02-23T05:20:50;29.75;;;14.25;;
62711;SDS011;48772;55.586;37.730;2024-02-23T05:23:16;52.25;;;17.73;;
62711;SDS011;48772;55.586;37.730;2024-02-23T05:25:42;33.67;;;13.13;;
62711;SDS011;48772;55.586;37.730;2024-02-23T05:28:08;33.58;;;15.07;;
62711;SDS011;48772;55.586;37.730;2024-02-23T05:30:34;27.15;;;13.00;;
62711;SDS011;48772;55.586;37.730;2024-02-23T05:33:00;36.25;;;15.05;;
62711;SDS011;48772;55.586;37.730;2024-02-23T05:35:29;43.42;;;16.98;;
62711;SDS011;48772;55.586;37.730;2024-02-23T05:37:55;33.95;;;14.93;;
62711;SDS011;48772;55.586;37.730;2024-02-23T05:40:21;32.45;;;14.38;;
62711;SDS011;48772;55.586;37.730;2024-02-23T05:42:47;41.58;;;17.70;;
62711;SDS011;48772;55.586;37.730;2024-02-23T05:45:13;38.30;;;15.43;;
62711;SDS011;48772;55.586;37.730;2024-02-23T05:47:39;32.75;;;14.00;;
62711;SDS011;48772;55.586;37.730;2024-02-23T05:50:07;35.13;;;14.05;;
62711;SDS011;48772;55.586;37.730;2024-02-23T05:52:37;27.38;;;11.95;;
62711;SDS011;48772;55.586;37.730;2024-02-23T05:55:05;19.23;;;10.68;;
62711;SDS011;48772;55.586;37.730;2024-02-23T05:57:34;32.35;;;11.60;;
62711;SDS011;48772;55.586;37.730;2024-02-23T06:00:03;38.22;;;15.15;;
62711;SDS011;48772;55.586;37.730;2024-02-23T06:02:37;38.08;;;14.93;;
62711;SDS011;48772;55.586;37.730;2024-02-23T06:05:04;34.97;;;16.00;;
62711;SDS011;48772;55.586;37.730;2024-02-23T06:07:33;28.70;;;13.98;;
62711;SDS011;48772;55.586;37.730;2024-02-23T06:10:00;39.00;;;12.93;;
62711;SDS011;48772;55.586;37.730;2024-02-23T06:12:26;42.97;;;15.65;;
62711;SDS011;48772;55.586;37.730;2024-02-23T06:14:53;34.78;;;12.90;;
62711;SDS011;48772;55.586;37.730;2024-02-23T06:17:20;39.97;;;15.32;;
62711;SDS011;48772;55.586;37.730;2024-02-23T06:19:46;32.88;;;14.27;;
62711;SDS011;48772;55.586;37.730;2024-02-23T06:22:12;43.88;;;14.43;;
62711;SDS011;48772;55.586;37.730;2024-02-23T06:24:40;31.98;;;14.00;;
62711;SDS011;48772;55.586;37.730;2024-02-23T06:27:06;32.22;;;14.43;;
62711;SDS011;48772;55.586;37.730;2024-02-23T06:29:33;37.17;;;13.35;;
62711;SDS011;48772;55.586;37.730;2024-02-23T06:31:59;31.15;;;13.55;;
62711;SDS011;48772;55.586;37.730;2024-02-23T06:34:28;32.22;;;15.93;;
62711;SDS011;48772;55.586;37.730;2024-02-23T06:36:54;29.98;;;13.95;;
62711;SDS011;48772;55.586;37.730;2024-02-23T06:39:20;33.80;;;14.63;;
62711;SDS011;48772;55.586;37.730;2024-02-23T06:41:45;38.80;;;15.65;;
62711;SDS011;48772;55.586;37.730;2024-02-23T06:44:11;32.55;;;14.25;;
62711;SDS011;48772;55.586;37.730;2024-02-23T06:46:37;21.83;;;11.45;;
62711;SDS011;48772;55.586;37.730;2024-02-23T06:49:03;34.25;;;15.52;;
62711;SDS011;48772;55.586;37.730;2024-02-23T06:51:31;27.27;;;12.75;;
62711;SDS011;48772;55.586;37.730;2024-02-23T06:53:57;26.67;;;13.80;;
62711;SDS011;48772;55.586;37.730;2024-02-23T06:56:23;27.20;;;12.05;;
62711;SDS011;48772;55.586;37.730;2024-02-23T06:58:49;31.15;;;14.45;;
62711;SDS011;48772;55.586;37.730;2024-02-23T07:01:15;25.25;;;12.15;;
62711;SDS011;48772;55.586;37.730;2024-02-23T07:03:41;36.70;;;13.65;;
62711;SDS011;48772;55.586;37.730;2024-02-23T07:06:12;25.48;;;11.23;;
62711;SDS011;48772;55.586;37.730;2024-02-23T07:08:39;17.85;;;9.40;;
62711;SDS011;48772;55.586;37.730;2024-02-23T07:11:05;24.05;;;11.20;;
62711;SDS011;48772;55.586;37.730;2024-02-23T07:17:58;27.80;;;12.48;;
62711;SDS011;48772;55.586;37.730;2024-02-23T07:21:36;25.58;;;11.07;;
62711;SDS011;48772;55.586;37.730;2024-02-23T07:24:02;30.63;;;14.88;;
62711;SDS011;48772;55.586;37.730;2024-02-23T07:26:29;24.45;;;11.52;;
62711;SDS011;48772;55.586;37.730;2024-02-23T07:28:58;22.15;;;11.25;;
62711;SDS011;48772;55.586;37.730;2024-02-23T07:31:30;25.83;;;11.48;;
62711;SDS011;48772;55.586;37.730;2024-02-23T07:33:59;21.80;;;12.02;;
62711;SDS011;48772;55.586;37.730;2024-02-23T07:36:27;26.80;;;11.40;;
62711;SDS011;48772;55.586;37.730;2024-02-23T07:38:54;22.55;;;10.32;;
62711;SDS011;48772;55.586;37.730;2024-02-23T07:41:20;32.67;;;14.15;;
62711;SDS011;48772;55.586;37.730;2024-02-23T07:43:46;23.52;;;11.40;;
62711;SDS011;48772;55.586;37.730;2024-02-23T07:46:12;24.20;;;11.40;;
62711;SDS011;48772;55.586;37.730;2024-02-23T07:48:39;27.00;;;11.70;;
62711;SDS011;48772;55.586;37.730;2024-02-23T07:54:56;28.17;;;12.27;;
62711;SDS011;48772;55.586;37.730;2024-02-23T07:57:23;29.77;;;11.98;;
62711;SDS011;48772;55.586;37.730;2024-02-23T08:00:13;28.00;;;11.70;;
62711;SDS011;48772;55.586;37.730;2024-02-23T08:02:38;30.67;;;11.50;;
62711;SDS011;48772;55.586;37.730;2024-02-23T08:05:06;24.30;;;10.95;;
62711;SDS011;48772;55.586;37.730;2024-02-23T08:07:39;27.50;;;12.13;;
62711;SDS011;48772;55.586;37.730;2024-02-23T08:10:07;29.52;;;12.38;;
62711;SDS011;48772;55.586;37.730;2024-02-23T08:12:34;18.48;;;10.57;;
62711;SDS011;48772;55.586;37.730;2024-02-23T08:15:00;19.75;;;10.13;;
62711;SDS011;48772;55.586;37.730;2024-02-23T08:17:26;20.42;;;9.73;;
62711;SDS011;48772;55.586;37.730;2024-02-23T08:19:52;24.38;;;12.52;;
62711;SDS011;48772;55.586;37.730;2024-02-23T08:22:18;25.83;;;12.98;;
62711;SDS011;48772;55.586;37.730;2024-02-23T08:24:44;28.23;;;11.85;;
62711;SDS011;48772;55.586;37.730;2024-02-23T08:27:10;23.02;;;9.75;;
62711;SDS011;48772;55.586;37.730;2024-02-23T08:29:37;20.08;;;10.07;;
62711;SDS011;48772;55.586;37.730;2024-02-23T08:32:04;16.92;;;8.82;;
62711;SDS011;48772;55.586;37.730;2024-02-23T08:34:30;24.20;;;9.20;;
62711;SDS011;48772;55.586;37.730;2024-02-23T08:36:56;23.08;;;9.77;;
62711;SDS011;48772;55.586;37.730;2024-02-23T08:39:22;18.75;;;9.88;;
62711;SDS011;48772;55.586;37.730;2024-02-23T08:41:48;20.73;;;9.75;;
62711;SDS011;48772;55.586;37.730;2024-02-23T08:44:14;20.65;;;9.82;;
62711;SDS011;48772;55.586;37.730;2024-02-23T08:46:40;21.63;;;10.05;;
62711;SDS011;48772;55.586;37.730;2024-02-23T08:49:06;23.50;;;9.75;;
62711;SDS011;48772;55.586;37.730;2024-02-23T08:51:32;18.40;;;9.80;;
62711;SDS011;48772;55.586;37.730;2024-02-23T08:53:58;20.45;;;11.18;;
62711;SDS011;48772;55.586;37.730;2024-02-23T08:56:28;25.17;;;11.35;;
62711;SDS011;48772;55.586;37.730;2024-02-23T08:58:54;17.70;;;9.32;;
62711;SDS011;48772;55.586;37.730;2024-02-23T09:01:20;30.67;;;11.68;;
62711;SDS011;48772;55.586;37.730;2024-02-23T09:03:46;18.90;;;8.55;;
62711;SDS011;48772;55.586;37.730;2024-02-23T09:06:12;21.67;;;10.07;;
62711;SDS011;48772;55.586;37.730;2024-02-23T09:08:40;24.55;;;11.38;;
62711;SDS011;48772;55.586;37.730;2024-02-23T09:11:07;20.77;;;9.82;;
62711;SDS011;48772;55.586;37.730;2024-02-23T09:13:33;15.65;;;7.50;;
62711;SDS011;48772;55.586;37.730;2024-02-23T09:15:59;28.73;;;12.20;;
62711;SDS011;48772;55.586;37.730;2024-02-23T09:18:27;20.45;;;11.35;;
62711;SDS011;48772;55.586;37.730;2024-02-23T09:21:07;17.88;;;10.63;;
62711;SDS011;48772;55.586;37.730;2024-02-23T09:23:34;21.05;;;9.90;;
62711;SDS011;48772;55.586;37.730;2024-02-23T09:26:16;15.52;;;7.82;;
62711;SDS011;48772;55.586;37.730;2024-02-23T09:36:32;17.70;;;8.23;;
62711;SDS011;48772;55.586;37.730;2024-02-23T09:40:36;30.13;;;11.52;;
62711;SDS011;48772;55.586;37.730;2024-02-23T09:43:06;22.85;;;10.23;;
62711;SDS011;48772;55.586;37.730;2024-02-23T09:45:35;18.10;;;9.27;;
62711;SDS011;48772;55.586;37.730;2024-02-23T09:48:02;20.27;;;9.63;;
62711;SDS011;48772;55.586;37.730;2024-02-23T09:50:30;23.58;;;12.07;;
62711;SDS011;48772;55.586;37.730;2024-02-23T09:52:58;21.85;;;9.88;;
62711;SDS011;48772;55.586;37.730;2024-02-23T09:55:24;26.17;;;12.95;;
62711;SDS011;48772;55.586;37.730;2024-02-23T09:57:51;17.70;;;7.60;;
62711;SDS011;48772;55.586;37.730;2024-02-23T10:00:22;20.70;;;9.50;;
62711;SDS011;48772;55.586;37.730;2024-02-23T10:02:49;17.30;;;8.90;;
62711;SDS011;48772;55.586;37.730;2024-02-23T10:05:16;24.00;;;11.88;;
62711;SDS011;48772;55.586;37.730;2024-02-23T10:07:42;24.58;;;11.60;;
62711;SDS011;48772;55.586;37.730;2024-02-23T10:10:10;29.90;;;13.70;;
62711;SDS011;48772;55.586;37.730;2024-02-23T10:12:43;21.65;;;9.07;;
62711;SDS011;48772;55.586;37.730;2024-02-23T10:15:16;19.58;;;10.00;;
62711;SDS011;48772;55.586;37.730;2024-02-23T10:17:43;25.45;;;12.15;;
62711;SDS011;48772;55.586;37.730;2024-02-23T10:20:10;27.30;;;11.90;;
62711;SDS011;48772;55.586;37.730;2024-02-23T10:22:37;22.50;;;10.38;;
62711;SDS011;48772;55.586;37.730;2024-02-23T10:25:03;28.17;;;11.43;;
62711;SDS011;48772;55.586;37.730;2024-02-23T10:27:30;24.50;;;10.93;;
62711;SDS011;48772;55.586;37.730;2024-02-23T10:29:56;26.65;;;11.43;;
62711;SDS011;48772;55.586;37.730;2024-02-23T10:32:22;28.02;;;10.02;;
62711;SDS011;48772;55.586;37.730;2024-02-23T10:34:52;18.90;;;9.70;;
62711;SDS011;48772;55.586;37.730;2024-02-23T10:37:20;25.60;;;9.57;;
62711;SDS011;48772;55.586;37.730;2024-02-23T10:39:48;24.85;;;11.00;;
62711;SDS011;48772;55.586;37.730;2024-02-23T10:42:22;19.55;;;9.90;;
62711;SDS011;48772;55.586;37.730;2024-02-23T10:44:50;18.90;;;9.43;;
62711;SDS011;48772;55.586;37.730;2024-02-23T10:47:18;25.33;;;11.98;;
62711;SDS011;48772;55.586;37.730;2024-02-23T10:49:47;29.17;;;12.93;;
62711;SDS011;48772;55.586;37.730;2024-02-23T10:52:13;22.95;;;11.20;;
62711;SDS011;48772;55.586;37.730;2024-02-23T10:54:41;24.02;;;11.95;;
62711;SDS011;48772;55.586;37.730;2024-02-23T10:57:07;31.35;;;10.95;;
62711;SDS011;48772;55.586;37.730;2024-02-23T10:59:34;23.85;;;10.90;;
62711;SDS011;48772;55.586;37.730;2024-02-23T11:02:01;22.92;;;9.82;;
62711;SDS011;48772;55.586;37.730;2024-02-23T11:04:29;30.08;;;12.65;;
62711;SDS011;48772;55.586;37.730;2024-02-23T11:06:58;28.73;;;12.27;;
62711;SDS011;48772;55.586;37.730;2024-02-23T11:09:31;25.00;;;11.15;;
62711;SDS011;48772;55.586;37.730;2024-02-23T11:11:57;18.70;;;9.27;;
62711;SDS011;48772;55.586;37.730;2024-02-23T11:14:30;31.50;;;13.50;;
62711;SDS011;48772;55.586;37.730;2024-02-23T11:17:00;27.92;;;12.23;;
62711;SDS011;48772;55.586;37.730;2024-02-23T11:19:33;13.65;;;5.85;;
62711;SDS011;48772;55.586;37.730;2024-02-23T11:22:01;28.35;;;12.57;;
62711;SDS011;48772;55.586;37.730;2024-02-23T11:24:28;32.03;;;12.32;;
62711;SDS011;48772;55.586;37.730;2024-02-23T11:27:01;22.55;;;9.90;;
62711;SDS011;48772;55.586;37.730;2024-02-23T11:29:39;25.88;;;11.88;;
62711;SDS011;48772;55.586;37.730;2024-02-23T11:32:12;21.10;;;9.55;;
62711;SDS011;48772;55.586;37.730;2024-02-23T11:34:39;22.17;;;9.25;;
62711;SDS011;48772;55.586;37.730;2024-02-23T11:37:11;30.80;;;12.43;;
62711;SDS011;48772;55.586;37.730;2024-02-23T11:39:38;37.20;;;13.65;;
62711;SDS011;48772;55.586;37.730;2024-02-23T11:42:20;30.88;;;11.90;;
62711;SDS011;48772;55.586;37.730;2024-02-23T11:44:49;32.75;;;12.50;;
62711;SDS011;48772;55.586;37.730;2024-02-23T11:47:20;30.90;;;13.30;;
62711;SDS011;48772;55.586;37.730;2024-02-23T11:49:46;33.53;;;12.60;;
62711;SDS011;48772;55.586;37.730;2024-02-23T11:52:12;28.95;;;12.50;;
62711;SDS011;48772;55.586;37.730;2024-02-23T11:54:37;23.90;;;10.32;;
62711;SDS011;48772;55.586;37.730;2024-02-23T11:57:03;33.55;;;11.15;;
62711;SDS011;48772;55.586;37.730;2024-02-23T11:59:29;37.50;;;13.38;;
62711;SDS011;48772;55.586;37.730;2024-02-23T12:01:55;35.58;;;16.35;;
62711;SDS011;48772;55.586;37.730;2024-02-23T12:04:21;29.67;;;11.70;;
62711;SDS011;48772;55.586;37.730;2024-02-23T12:07:14;33.40;;;12.85;;
62711;SDS011;48772;55.586;37.730;2024-02-23T12:09:41;34.75;;;13.27;;
62711;SDS011;48772;55.586;37.730;2024-02-23T12:12:07;42.25;;;14.93;;
62711;SDS011;48772;55.586;37.730;2024-02-23T12:14:37;31.58;;;11.57;;
62711;SDS011;48772;55.586;37.730;2024-02-23T12:17:04;28.13;;;11.68;;
62711;SDS011;48772;55.586;37.730;2024-02-23T12:19:32;31.98;;;12.82;;
62711;SDS011;48772;55.586;37.730;2024-02-23T12:22:01;36.92;;;16.58;;
62711;SDS011;48772;55.586;37.730;2024-02-23T12:24:27;30.38;;;12.05;;
62711;SDS011;48772;55.586;37.730;2024-02-23T12:26:59;39.10;;;15.63;;
62711;SDS011;48772;55.586;37.730;2024-02-23T12:29:25;31.90;;;13.68;;
62711;SDS011;48772;55.586;37.730;2024-02-23T12:32:02;35.35;;;12.55;;
62711;SDS011;48772;55.586;37.730;2024-02-23T12:34:29;34.85;;;12.70;;
62711;SDS011;48772;55.586;37.730;2024-02-23T12:36:55;51.78;;;16.48;;
62711;SDS011;48772;55.586;37.730;2024-02-23T12:39:21;40.05;;;14.45;;
62711;SDS011;48772;55.586;37.730;2024-02-23T12:41:47;39.60;;;13.75;;
62711;SDS011;48772;55.586;37.730;2024-02-23T12:44:13;33.58;;;14.13;;
62711;SDS011;48772;55.586;37.730;2024-02-23T12:46:39;35.45;;;14.45;;
62711;SDS011;48772;55.586;37.730;2024-02-23T12:49:05;42.55;;;17.85;;
62711;SDS011;48772;55.586;37.730;2024-02-23T12:51:31;37.65;;;14.73;;
62711;SDS011;48772;55.586;37.730;2024-02-23T12:53:57;39.63;;;14.55;;
62711;SDS011;48772;55.586;37.730;2024-02-23T12:56:32;38.88;;;15.70;;
62711;SDS011;48772;55.586;37.730;2024-02-23T12:58:59;44.10;;;15.88;;
62711;SDS011;48772;55.586;37.730;2024-02-23T13:01:25;34.45;;;14.18;;
62711;SDS011;48772;55.586;37.730;2024-02-23T13:03:51;35.53;;;14.40;;
62711;SDS011;48772;55.586;37.730;2024-02-23T13:06:17;54.95;;;18.27;;
62711;SDS011;48772;55.586;37.730;2024-02-23T13:08:43;38.58;;;15.32;;
62711;SDS011;48772;55.586;37.730;2024-02-23T13:11:09;52.80;;;17.58;;
62711;SDS011;48772;55.586;37.730;2024-02-23T13:13:36;38.55;;;15.63;;
62711;SDS011;48772;55.586;37.730;2024-02-23T13:16:02;43.70;;;15.35;;
62711;SDS011;48772;55.586;37.730;2024-02-23T13:18:28;43.22;;;14.80;;
62711;SDS011;48772;55.586;37.730;2024-02-23T13:20:54;34.88;;;13.05;;
62711;SDS011;48772;55.586;37.730;2024-02-23T13:23:20;51.00;;;17.67;;
62711;SDS011;48772;55.586;37.730;2024-02-23T13:25:46;33.47;;;14.35;;
62711;SDS011;48772;55.586;37.730;2024-02-23T13:28:11;36.00;;;15.02;;
62711;SDS011;48772;55.586;37.730;2024-02-23T13:30:38;53.90;;;18.98;;
62711;SDS011;48772;55.586;37.730;2024-02-23T13:33:04;42.42;;;15.00;;
62711;SDS011;48772;55.586;37.730;2024-02-23T13:35:32;42.05;;;16.83;;
62711;SDS011;48772;55.586;37.730;2024-02-23T13:37:58;39.15;;;14.38;;
62711;SDS011;48772;55.586;37.730;2024-02-23T13:40:25;57.22;;;18.55;;
62711;SDS011;48772;55.586;37.730;2024-02-23T13:42:51;42.13;;;15.00;;
62711;SDS011;48772;55.586;37.730;2024-02-23T13:45:19;41.78;;;17.02;;
62711;SDS011;48772;55.586;37.730;2024-02-23T13:47:55;46.35;;;17.00;;
62711;SDS011;48772;55.586;37.730;2024-02-23T13:50:25;43.28;;;16.90;;
62711;SDS011;48772;55.586;37.730;2024-02-23T13:52:51;41.63;;;18.30;;
62711;SDS011;48772;55.586;37.730;2024-02-23T13:55:17;50.92;;;18.30;;
62711;SDS011;48772;55.586;37.730;2024-02-23T13:57:47;37.92;;;15.93;;
62711;SDS011;48772;55.586;37.730;2024-02-23T14:00:15;47.10;;;14.98;;
62711;SDS011;48772;55.586;37.730;2024-02-23T14:02:41;55.28;;;18.15;;
62711;SDS011;48772;55.586;37.730;2024-02-23T14:05:07;45.30;;;18.63;;
62711;SDS011;48772;55.586;37.730;2024-02-23T14:07:34;49.60;;;19.45;;
62711;SDS011;48772;55.586;37.730;2024-02-23T14:10:01;57.70;;;19.27;;
62711;SDS011;48772;55.586;37.730;2024-02-23T14:12:30;49.72;;;20.67;;
62711;SDS011;48772;55.586;37.730;2024-02-23T14:14:56;58.67;;;20.60;;
62711;SDS011;48772;55.586;37.730;2024-02-23T14:17:23;52.05;;;19.50;;
62711;SDS011;48772;55.586;37.730;2024-02-23T14:19:50;60.05;;;23.17;;
62711;SDS011;48772;55.586;37.730;2024-02-23T14:22:18;47.97;;;18.25;;
62711;SDS011;48772;55.586;37.730;2024-02-23T14:24:44;43.90;;;16.80;;
62711;SDS011;48772;55.586;37.730;2024-02-23T14:27:10;61.50;;;21.90;;
62711;SDS011;48772;55.586;37.730;2024-02-23T14:29:36;69.80;;;22.15;;